< < Back
Terminal Aerodrome Forecast


Current Version              Previous Versions:   1  2  3  4  5  6  7  8  9  

Terminal Aerodrome Forecast

966
FTUS42 KCAE 042300
TAFAGS
TAF
KAGS 042338Z 0500/0524 22008KT P6SM BKN080
     FM050700 22008KT 2SM BR OVC003
     FM051400 24012G20KT P6SM OVC015
     FM051800 26015G22KT 4SM -SHRA OVC025
     FM052100 32010KT P6SM -RA OVC015=

Latest METAR

758
SAUS70 KWBC 050200 RRV
MTRAGS
METAR KAGS 050153Z 19005KT 10SM BKN080 19/14 A2996 RMK AO2 SLP145
T01940139


USA.gov is the U.S. government's official web portal to all federal, state and local government web resources and services.